createdAt,value
2019-03-04T00:01:23.353Z,2.50
2019-03-04T00:07:29.133Z,2.30
2019-03-04T00:13:34.912Z,2.60
2019-03-04T00:19:40.890Z,3.20
2019-03-04T00:25:46.808Z,2.40
2019-03-04T00:31:52.795Z,2.53
2019-03-04T00:37:58.729Z,2.60
2019-03-04T00:44:04.488Z,2.57
2019-03-04T00:50:11.163Z,2.43
2019-03-04T00:56:16.954Z,2.57
2019-03-04T01:02:23.140Z,2.73
2019-03-04T01:08:29.167Z,2.63
2019-03-04T01:14:34.992Z,2.60
2019-03-04T01:20:40.838Z,2.47
2019-03-04T01:26:47.096Z,2.43
2019-03-04T01:32:54.072Z,2.17
2019-03-04T01:38:59.917Z,1.90
2019-03-04T01:45:06.378Z,1.80
2019-03-04T01:51:12.621Z,1.80
2019-03-04T01:57:18.394Z,1.50
2019-03-04T02:03:24.803Z,1.30
2019-03-04T02:09:31.074Z,1.30
2019-03-04T02:15:37.318Z,1.10
2019-03-04T02:21:43.416Z,0.90
2019-03-04T02:27:53.393Z,1.10
2019-03-04T02:33:59.663Z,0.90
2019-03-04T02:40:06.656Z,1.43
2019-03-04T02:46:12.749Z,1.13
2019-03-04T02:52:18.839Z,1.00
2019-03-04T02:58:24.817Z,0.90
2019-03-04T03:04:30.834Z,0.90
2019-03-04T03:10:36.918Z,0.77
2019-03-04T03:16:42.704Z,1.10
2019-03-04T03:22:48.786Z,0.93
2019-03-04T03:28:55.009Z,1.03
2019-03-04T03:35:00.884Z,1.13
2019-03-04T03:41:07.398Z,1.20
2019-03-04T03:47:13.220Z,1.83
2019-03-04T03:53:19.264Z,1.70
2019-03-04T03:59:25.247Z,1.70
2019-03-04T04:05:31.228Z,1.70
2019-03-04T04:11:37.063Z,1.63
2019-03-04T04:17:42.872Z,1.87
2019-03-04T04:23:49.090Z,2.30
2019-03-04T04:29:55.095Z,1.60
2019-03-04T04:36:00.910Z,2.00
2019-03-04T04:42:06.775Z,1.90
2019-03-04T04:48:12.581Z,2.00
2019-03-04T04:54:18.318Z,1.63
2019-03-04T05:00:24.244Z,1.37
2019-03-04T05:06:30.034Z,2.27
2019-03-04T05:12:36.069Z,1.37
2019-03-04T05:18:42.069Z,1.83
2019-03-04T05:24:47.822Z,1.63
2019-03-04T05:30:53.552Z,1.43
2019-03-04T05:36:59.322Z,0.90
2019-03-04T05:43:05.235Z,1.10
2019-03-04T05:49:11.013Z,0.77
2019-03-04T05:55:17.210Z,0.80
2019-03-04T06:01:35.264Z,0.90
2019-03-04T06:07:50.311Z,2.23
2019-03-04T06:13:56.093Z,1.17
2019-03-04T06:20:01.923Z,0.60
2019-03-04T06:26:07.940Z,0.60
2019-03-04T06:32:13.885Z,0.47
2019-03-04T06:38:20.192Z,0.50
2019-03-04T06:44:26.118Z,0.63
2019-03-04T06:50:52.762Z,0.70
2019-03-04T06:57:30.946Z,0.67
2019-03-04T07:03:48.476Z,0.40
2019-03-04T07:09:54.754Z,0.60
2019-03-04T07:16:00.760Z,0.73
2019-03-04T07:22:07.545Z,0.70
2019-03-04T07:28:13.381Z,1.23
2019-03-04T07:34:19.599Z,0.93
2019-03-04T07:40:25.481Z,0.97
2019-03-04T07:46:31.252Z,1.23
2019-03-04T07:52:37.007Z,1.20
2019-03-04T07:58:42.863Z,1.27
2019-03-04T08:04:48.792Z,1.07
2019-03-04T08:12:12.800Z,1.30
2019-03-04T08:18:18.760Z,1.30
2019-03-04T08:24:24.911Z,1.00
2019-03-04T08:30:30.817Z,1.30
2019-03-04T08:36:37.153Z,1.50
2019-03-04T08:42:43.317Z,1.20
2019-03-04T08:48:49.096Z,1.40
2019-03-04T08:54:56.170Z,1.23
2019-03-04T09:01:02.107Z,1.37
2019-03-04T09:07:07.949Z,1.20
2019-03-04T09:13:14.013Z,1.33
2019-03-04T09:19:20.294Z,1.47
2019-03-04T09:25:40.000Z,1.50
2019-03-04T09:31:46.493Z,2.10
2019-03-04T09:37:54.986Z,1.70
2019-03-04T09:44:00.816Z,1.53
2019-03-04T09:50:10.119Z,1.57
2019-03-04T09:56:16.177Z,1.80
2019-03-04T10:02:37.355Z,1.33
2019-03-04T10:09:23.496Z,1.73
2019-03-04T10:16:21.893Z,1.63
2019-03-04T10:23:27.159Z,1.63
2019-03-04T10:30:14.182Z,2.50
2019-03-04T10:37:02.203Z,1.97
2019-03-04T10:44:19.680Z,2.17
2019-03-04T10:50:26.013Z,2.13
2019-03-04T10:56:31.802Z,2.03
2019-03-04T11:02:37.567Z,1.90
2019-03-04T11:08:43.377Z,2.07
2019-03-04T11:14:49.144Z,0.90
2019-03-04T11:20:56.995Z,0.90
2019-03-04T11:27:02.742Z,1.20
2019-03-04T11:33:10.334Z,1.30
2019-03-04T11:39:47.900Z,1.33
2019-03-04T11:45:53.783Z,1.00
2019-03-04T11:51:59.525Z,0.40
2019-03-04T11:58:05.344Z,0.60
2019-03-04T12:04:11.336Z,0.30
2019-03-04T12:10:20.105Z,0.60
2019-03-04T12:16:26.069Z,0.87
2019-03-04T12:22:31.795Z,0.70
2019-03-04T12:28:37.723Z,0.90
2019-03-04T12:34:43.453Z,1.57
2019-03-04T12:40:49.230Z,1.03
2019-03-04T12:46:55.042Z,1.30
2019-03-04T12:53:00.990Z,1.43
2019-03-04T12:59:06.851Z,1.67
2019-03-04T13:05:12.902Z,2.17
2019-03-04T13:11:18.710Z,2.17
2019-03-04T13:17:24.466Z,2.70
2019-03-04T13:23:30.385Z,2.90
2019-03-04T13:29:36.203Z,2.23
2019-03-04T13:35:42.174Z,3.20
2019-03-04T13:41:47.919Z,3.17
2019-03-04T13:47:53.685Z,3.30
2019-03-04T13:53:59.547Z,4.13
2019-03-04T14:00:06.544Z,6.67
2019-03-04T14:06:12.782Z,3.20
2019-03-04T14:12:18.495Z,2.77
2019-03-04T14:18:24.695Z,3.57
2019-03-04T14:24:32.253Z,3.10
2019-03-04T14:30:38.325Z,2.67
2019-03-04T14:36:44.496Z,2.53
2019-03-04T14:42:50.508Z,2.27
2019-03-04T14:48:56.502Z,1.70
2019-03-04T14:55:02.677Z,1.70
2019-03-04T15:01:08.989Z,1.50
2019-03-04T15:07:15.337Z,1.43
2019-03-04T15:13:21.547Z,1.53
2019-03-04T15:19:27.529Z,1.77
2019-03-04T15:25:33.709Z,1.40
2019-03-04T15:31:39.523Z,1.40
2019-03-04T15:37:45.702Z,1.37
2019-03-04T15:43:51.662Z,1.33
2019-03-04T15:49:57.744Z,1.33
2019-03-04T15:56:03.544Z,1.50
2019-03-04T16:02:14.508Z,1.20
2019-03-04T16:08:20.524Z,1.43
2019-03-04T16:14:26.822Z,1.33
2019-03-04T16:20:33.085Z,1.27
2019-03-04T16:26:39.421Z,1.03
2019-03-04T16:32:45.355Z,1.70
2019-03-04T16:38:51.260Z,2.23
2019-03-04T16:44:57.002Z,2.80
2019-03-04T16:51:02.853Z,2.33
2019-03-04T16:57:13.862Z,1.70
2019-03-04T17:03:19.725Z,1.70
2019-03-04T17:09:26.268Z,1.30
2019-03-04T17:15:32.009Z,1.70
2019-03-04T17:21:37.673Z,1.90
2019-03-04T17:27:43.745Z,2.80
2019-03-04T17:33:49.550Z,3.23
2019-03-04T17:39:55.461Z,1.90
2019-03-04T17:46:01.290Z,1.60
2019-03-04T17:52:07.125Z,4.60
2019-03-04T17:58:13.492Z,1.77
2019-03-04T18:04:19.254Z,2.03
2019-03-04T18:10:25.416Z,1.70
2019-03-04T18:16:31.131Z,1.50
2019-03-04T18:22:36.901Z,2.00
2019-03-04T18:29:11.217Z,2.00
2019-03-04T18:36:23.197Z,1.77
2019-03-04T18:42:56.997Z,1.47
2019-03-04T18:49:03.911Z,1.40
2019-03-04T18:55:10.300Z,1.60
2019-03-04T19:01:16.761Z,1.50
2019-03-04T19:07:22.940Z,1.90
2019-03-04T19:13:28.882Z,2.70
2019-03-04T19:19:34.758Z,2.30
2019-03-04T19:25:40.764Z,2.37
2019-03-04T19:31:46.761Z,1.83
2019-03-04T19:37:52.707Z,1.60
2019-03-04T19:43:58.542Z,1.80
2019-03-04T19:50:04.868Z,1.97
2019-03-04T19:56:10.695Z,2.20
2019-03-04T20:02:18.181Z,2.37
2019-03-04T20:08:24.092Z,2.10
2019-03-04T20:14:29.983Z,2.00
2019-03-04T20:20:36.025Z,2.40
2019-03-04T20:26:42.189Z,2.40
2019-03-04T20:32:48.226Z,1.83
2019-03-04T20:38:54.046Z,2.17
2019-03-04T20:44:59.862Z,2.40
2019-03-04T20:51:06.109Z,2.00
2019-03-04T20:57:12.190Z,2.63
2019-03-04T21:03:18.453Z,2.00
2019-03-04T21:09:24.804Z,2.00
2019-03-04T21:15:30.612Z,2.00
2019-03-04T21:21:36.737Z,1.47
2019-03-04T21:27:42.541Z,1.17
2019-03-04T21:34:17.289Z,1.13
2019-03-04T21:41:27.110Z,1.50
2019-03-04T21:47:38.613Z,2.43
2019-03-04T21:53:47.574Z,1.70
2019-03-04T21:59:53.410Z,1.13
2019-03-04T22:05:59.676Z,1.20
2019-03-04T22:12:07.609Z,1.10
2019-03-04T22:18:13.346Z,1.60
2019-03-04T22:24:19.180Z,1.90
2019-03-04T22:30:24.974Z,1.77
2019-03-04T22:36:30.811Z,2.37
2019-03-04T22:42:36.746Z,1.90
2019-03-04T22:48:42.533Z,2.10
2019-03-04T22:54:48.251Z,2.27
2019-03-04T23:01:56.373Z,2.60
2019-03-04T23:08:02.150Z,2.50
2019-03-04T23:14:19.726Z,2.40
2019-03-04T23:20:25.620Z,2.60
2019-03-04T23:26:31.450Z,2.60
2019-03-04T23:32:37.571Z,2.83
2019-03-04T23:38:43.367Z,2.50
2019-03-04T23:44:49.101Z,2.80
2019-03-04T23:50:55.383Z,2.90
2019-03-04T23:57:01.800Z,2.80
